Aérodrome :
LOGIN :

S'inscrire | Disclaimer

   EN    FR    IT 

 










Légende :    VFR   VFR Marginal   IFR   IFR Intensif   IFR Très Intensif
Visi : 
Plafond : 
>= 8 km
>= 3000ft
5 à 8 km
1000 à 3000 ft
1500m à 5 km
500 à 1000 ft
800 à 1500m
200 à 500 ft
< 800m
< 200 ft
Symboles :   Orages  Brouillard  Fortes neiges  Fortes précipitations  Vent > 20 kt
SIGMETs :   Divers  Orages  Givrage  Turbulence  Onde Orograph.  Cendres Volcan.







- Altitude de l'aérodrome : 194 ft


EBCV - Chièvres

DERNIER METAR :
  • 221755Z AUTO 27005KT 9999 NCD 06/04 Q1017 BLU

METARs EXPIRÉS :
  • 221725Z AUTO 27006KT 8000 NCD 05/04 Q1016 BLU
  • 221655Z AUTO 28008KT 9999 NCD 06/04 Q1015 BLU
  • 221625Z AUTO 29007KT 9999 NCD 06/04 Q1014 BLU
  • 221555Z AUTO 29008KT 9999 NCD 07/05 Q1014 BLU
  • 221525Z AUTO 30009KT 9999 NCD 09/05 Q1013 BLU

TAF TAF EBCV
Valide du 22 à 13h jusqu'au 22 à 22h UTC


221141Z 2213/2222 28010KT 8000 BKN010 OVC018
BECMG 2213/2215 26008KT 9999 FEW010 SCT018 BKN025 BY EBWM
Pas de NOTAMs connus pour ce terrain.



MET'MAP, la Météo Aéronautique d'un coup d'oeil ! - Copyright ORBIFLY Décembre 2007 - Disclaimer

ORBIFLY MET'MAP TEAM :

Programmation & Développement : Alexandra Zaïnal
Conception & Développement : Baudouin d'Aumeries
Co-Programmation & Développement : Marc-Olivier Méhu
Soutien technique & logistique : Manuel Goepfert

Contact : metmap@orbifly.com




SOURCES & CREDITS :

   NOAA